Wetterdaten: Woche 03.05.21 - 09.05.21 (KW18)
Datum Zeit Temp. Aussen Temp. o. S. Temp +5cm Feuchte Auss Luftdruck Regen Sonnenschein Regendauer Solar Windben Empfang
03.05.2021 00:00 4,3 C 3,3 C 1,2 C 80 % 1021,6 hPa 0,0 l/m 0,00 h 0,00 h 0 W/m 0,2 km/h (0 Bft) 97,27 %
03.05.2021 01:00 3,8 C 2,8 C 0,8 C 83 % 1021,8 hPa 0,0 l/m 0,00 h 0,00 h 0 W/m 0,0 km/h (0 Bft) 94,08 %
03.05.2021 02:00 3,3 C 2,3 C 0,7 C 85 % 1021,8 hPa 0,0 l/m 0,00 h 0,00 h 0 W/m 0,1 km/h (0 Bft) 95,87 %
03.05.2021 03:00 2,8 C 1,5 C -0,1 C 86 % 1021,8 hPa 0,0 l/m 0,00 h 0,00 h 0 W/m 0,1 km/h (0 Bft) 96,17 %
03.05.2021 04:00 1,9 C 0,8 C -0,6 C 87 % 1022,0 hPa 0,0 l/m 0,00 h 0,00 h 0 W/m 0,0 km/h (0 Bft) 97,81 %
03.05.2021 05:00 1,8 C 1,4 C -0,3 C 90 % 1021,7 hPa 0,0 l/m 0,00 h 0,00 h 0 W/m 3,2 km/h (1 Bft) 99,32 %
03.05.2021 06:00 2,2 C 2,0 C 0,4 C 90 % 1021,6 hPa 0,0 l/m 0,37 h 0,00 h 30 W/m 5,0 km/h (1 Bft) 94,30 %
03.05.2021 07:00 3,8 C 4,0 C 2,2 C 87 % 1021,7 hPa 0,0 l/m 0,00 h 0,00 h 81 W/m 10,9 km/h (2 Bft) 96,20 %
03.05.2021 08:00 5,1 C 6,2 C 3,4 C 84 % 1021,7 hPa 0,0 l/m 0,33 h 0,00 h 193 W/m 8,5 km/h (2 Bft) 96,36 %
03.05.2021 09:00 8,3 C 12,4 C 9,9 C 73 % 1021,6 hPa 0,0 l/m 0,93 h 0,00 h 406 W/m 15,7 km/h (3 Bft) 94,14 %
03.05.2021 10:00 11,2 C 13,7 C 13,2 C 59 % 1021,2 hPa 0,0 l/m 1,00 h 0,00 h 535 W/m 20,5 km/h (4 Bft) 98,44 %
03.05.2021 11:00 12,3 C 14,1 C 13,5 C 55 % 1020,7 hPa 0,0 l/m 1,00 h 0,00 h 643 W/m 22,1 km/h (4 Bft) 98,57 %
03.05.2021 12:00 13,7 C 16,0 C 18,0 C 52 % 1020,0 hPa 0,0 l/m 1,00 h 0,00 h 740 W/m 24,4 km/h (4 Bft) 97,49 %
03.05.2021 13:00 13,8 C 15,0 C 14,7 C 51 % 1019,2 hPa 0,0 l/m 0,33 h 0,00 h 437 W/m 24,5 km/h (4 Bft) 98,93 %
03.05.2021 14:00 13,5 C 14,0 C 11,7 C 51 % 1018,5 hPa 0,0 l/m 0,17 h 0,00 h 292 W/m 20,4 km/h (4 Bft) 97,44 %
03.05.2021 15:00 14,2 C 14,9 C 12,0 C 48 % 1017,7 hPa 0,0 l/m 0,33 h 0,00 h 336 W/m 20,8 km/h (4 Bft) 96,44 %
03.05.2021 16:00 14,1 C 14,4 C 11,6 C 50 % 1017,1 hPa 0,0 l/m 0,23 h 0,00 h 255 W/m 24,4 km/h (4 Bft) 97,02 %
03.05.2021 17:00 14,6 C 15,4 C 12,1 C 48 % 1016,0 hPa 0,0 l/m 0,73 h 0,00 h 301 W/m 27,4 km/h (4 Bft) 98,39 %
03.05.2021 18:00 14,3 C 14,7 C 11,5 C 50 % 1014,9 hPa 0,0 l/m 0,73 h 0,00 h 221 W/m 27,5 km/h (4 Bft) 97,37 %
03.05.2021 19:00 13,9 C 13,4 C 10,7 C 52 % 1014,0 hPa 0,0 l/m 0,27 h 0,00 h 100 W/m 27,1 km/h (4 Bft) 95,68 %
03.05.2021 20:00 13,0 C 12,1 C 9,7 C 56 % 1013,1 hPa 0,0 l/m 0,00 h 0,00 h 20 W/m 18,9 km/h (3 Bft) 99,50 %
03.05.2021 21:00 12,1 C 11,2 C 8,7 C 59 % 1012,0 hPa 0,0 l/m 0,00 h 0,00 h 0 W/m 9,8 km/h (2 Bft) 98,39 %
03.05.2021 22:00 11,5 C 10,7 C 8,4 C 61 % 1010,9 hPa 0,0 l/m 0,00 h 0,00 h 0 W/m 14,2 km/h (3 Bft) 97,06 %
03.05.2021 23:00 11,7 C 11,1 C 8,4 C 60 % 1009,2 hPa 0,0 l/m 0,00 h 0,00 h 0 W/m 19,3 km/h (3 Bft) 96,65 %
04.05.2021 00:00 11,8 C 11,1 C 8,4 C 59 % 1007,2 hPa 0,0 l/m 0,00 h 0,00 h 0 W/m 21,7 km/h (4 Bft) 98,46 %
04.05.2021 01:00 11,8 C 11,1 C 8,4 C 59 % 1005,4 hPa 0,0 l/m 0,00 h 0,00 h 0 W/m 22,3 km/h (4 Bft) 97,59 %
04.05.2021 02:00 12,2 C 11,6 C 9,0 C 57 % 1003,5 hPa 0,0 l/m 0,00 h 0,00 h 0 W/m 23,8 km/h (4 Bft) 97,22 %
04.05.2021 03:00 13,0 C 12,0 C 9,1 C 54 % 1002,3 hPa 0,0 l/m 0,00 h 0,27 h 0 W/m 40,2 km/h (6 Bft) 97,34 %
04.05.2021 04:00 10,0 C 8,2 C 4,7 C 75 % 1001,7 hPa 0,8 l/m 0,00 h 1,00 h 0 W/m 39,0 km/h (6 Bft) 97,79 %
04.05.2021 05:00 8,7 C 7,3 C 4,0 C 82 % 1000,7 hPa 0,4 l/m 0,00 h 1,00 h 0 W/m 36,6 km/h (5 Bft) 96,36 %
04.05.2021 06:00 8,6 C 7,7 C 4,6 C 82 % 999,8 hPa 0,0 l/m 0,00 h 0,47 h 12 W/m 33,4 km/h (5 Bft) 98,72 %
04.05.2021 07:00 9,1 C 8,5 C 5,4 C 81 % 999,1 hPa 0,0 l/m 0,00 h 0,03 h 16 W/m 42,8 km/h (6 Bft) 94,87 %
04.05.2021 08:00 9,8 C 9,2 C 6,7 C 81 % 998,9 hPa 0,0 l/m 0,17 h 0,37 h 82 W/m 41,4 km/h (6 Bft) 97,73 %
04.05.2021 09:00 9,3 C 8,3 C 5,8 C 87 % 998,5 hPa 0,4 l/m 0,00 h 0,97 h 77 W/m 38,3 km/h (5 Bft) 99,12 %
04.05.2021 10:00 10,1 C 9,7 C 7,0 C 88 % 998,1 hPa 0,4 l/m 0,10 h 0,77 h 180 W/m 38,2 km/h (5 Bft) 97,31 %
04.05.2021 11:00 10,5 C 10,2 C 8,0 C 88 % 998,0 hPa 0,4 l/m 0,27 h 0,53 h 317 W/m 39,8 km/h (6 Bft) 96,31 %
04.05.2021 12:00 12,3 C 12,4 C 10,0 C 78 % 997,8 hPa 0,2 l/m 0,30 h 0,17 h 441 W/m 39,3 km/h (6 Bft) 98,31 %
04.05.2021 13:00 13,2 C 13,6 C 13,0 C 68 % 998,5 hPa 0,0 l/m 0,50 h 0,00 h 485 W/m 36,3 km/h (5 Bft) 98,88 %
04.05.2021 14:00 12,5 C 12,8 C 10,0 C 68 % 999,3 hPa 0,0 l/m 0,17 h 0,23 h 290 W/m 34,6 km/h (5 Bft) 97,17 %
04.05.2021 15:00 13,2 C 13,5 C 10,6 C 62 % 999,4 hPa 0,0 l/m 0,07 h 0,10 h 267 W/m 33,8 km/h (5 Bft) 94,22 %
04.05.2021 16:00 14,0 C 14,5 C 11,1 C 55 % 999,6 hPa 0,0 l/m 0,33 h 0,00 h 310 W/m 36,9 km/h (5 Bft) 99,64 %
04.05.2021 17:00 11,1 C 10,6 C 7,4 C 75 % 1000,4 hPa 0,4 l/m 0,00 h 0,53 h 112 W/m 24,4 km/h (4 Bft) 96,56 %
04.05.2021 18:00 10,3 C 10,5 C 7,1 C 78 % 1000,8 hPa 0,2 l/m 0,30 h 0,63 h 141 W/m 24,4 km/h (4 Bft) 93,93 %
04.05.2021 19:00 8,5 C 7,2 C 4,8 C 85 % 1001,4 hPa 1,4 l/m 0,00 h 0,90 h 17 W/m 27,8 km/h (4 Bft) 98,58 %
04.05.2021 20:00 7,5 C 6,6 C 4,5 C 89 % 1001,5 hPa 0,4 l/m 0,00 h 0,77 h 8 W/m 19,4 km/h (3 Bft) 97,65 %
04.05.2021 21:00 7,7 C 6,9 C 4,5 C 87 % 1001,9 hPa 0,2 l/m 0,00 h 0,43 h 0 W/m 21,6 km/h (4 Bft) 97,94 %
04.05.2021 22:00 7,3 C 6,6 C 4,0 C 87 % 1002,0 hPa 0,0 l/m 0,00 h 0,47 h 0 W/m 21,6 km/h (4 Bft) 96,78 %
04.05.2021 23:00 6,9 C 6,1 C 3,9 C 88 % 1002,1 hPa 0,0 l/m 0,00 h 0,00 h 0 W/m 14,9 km/h (3 Bft) 96,88 %
05.05.2021 00:00 6,6 C 6,0 C 3,9 C 89 % 1002,1 hPa 0,0 l/m 0,00 h 0,00 h 0 W/m 14,4 km/h (3 Bft) 97,23 %
05.05.2021 01:00 6,9 C 6,3 C 4,2 C 86 % 1001,8 hPa 0,0 l/m 0,00 h 0,03 h 0 W/m 15,6 km/h (3 Bft) 94,14 %
05.05.2021 02:00 6,4 C 5,8 C 4,1 C 86 % 1001,8 hPa 0,0 l/m 0,00 h 0,00 h 0 W/m 14,6 km/h (3 Bft) 98,39 %
05.05.2021 03:00 6,1 C 5,5 C 4,2 C 88 % 1001,7 hPa 0,0 l/m 0,00 h 0,10 h 0 W/m 13,8 km/h (3 Bft) 98,35 %
05.05.2021 04:00 5,4 C 4,6 C 3,6 C 89 % 1001,6 hPa 0,0 l/m 0,00 h 0,00 h 0 W/m 10,8 km/h (2 Bft) 95,80 %
05.05.2021 05:00 5,1 C 4,5 C 3,8 C 91 % 1001,7 hPa 0,0 l/m 0,00 h 0,00 h 0 W/m 12,3 km/h (3 Bft) 99,01 %
05.05.2021 06:00 5,4 C 5,0 C 4,0 C 91 % 1002,1 hPa 0,2 l/m 0,00 h 0,17 h 11 W/m 11,6 km/h (2 Bft) 97,21 %
05.05.2021 07:00 5,6 C 5,2 C 4,1 C 92 % 1002,6 hPa 0,2 l/m 0,00 h 0,10 h 33 W/m 9,9 km/h (2 Bft) 95,47 %
05.05.2021 08:00 5,6 C 5,0 C 3,7 C 93 % 1003,0 hPa 2,0 l/m 0,00 h 0,37 h 62 W/m 14,8 km/h (3 Bft) 96,70 %
05.05.2021 09:00 5,5 C 5,1 C 3,8 C 92 % 1003,6 hPa 0,2 l/m 0,00 h 0,67 h 111 W/m 19,9 km/h (4 Bft) 99,50 %
05.05.2021 10:00 6,4 C 7,5 C 6,2 C 92 % 1004,2 hPa 0,0 l/m 0,43 h 0,33 h 356 W/m 17,7 km/h (3 Bft) 97,86 %
05.05.2021 11:00 7,9 C 8,3 C 6,0 C 84 % 1004,7 hPa 0,0 l/m 0,33 h 0,03 h 284 W/m 21,3 km/h (4 Bft) 97,51 %
05.05.2021 12:00 8,4 C 9,2 C 8,3 C 82 % 1005,6 hPa 0,0 l/m 0,37 h 0,07 h 450 W/m 19,9 km/h (4 Bft) 98,16 %
05.05.2021 13:00 9,8 C 11,0 C 10,6 C 74 % 1006,3 hPa 0,2 l/m 0,73 h 0,10 h 613 W/m 26,4 km/h (4 Bft) 96,80 %
05.05.2021 14:00 8,4 C 9,1 C 6,5 C 82 % 1007,6 hPa 0,2 l/m 0,50 h 0,20 h 441 W/m 23,8 km/h (4 Bft) 98,25 %
05.05.2021 15:00 8,3 C 9,1 C 6,2 C 85 % 1008,5 hPa 0,2 l/m 0,60 h 0,23 h 475 W/m 24,7 km/h (4 Bft) 97,37 %
05.05.2021 16:00 9,5 C 11,7 C 7,2 C 80 % 1008,8 hPa 0,2 l/m 0,77 h 0,20 h 586 W/m 23,1 km/h (4 Bft) 94,39 %
05.05.2021 17:00 10,6 C 12,4 C 8,2 C 67 % 1008,9 hPa 0,0 l/m 0,63 h 0,00 h 390 W/m 24,3 km/h (4 Bft) 99,57 %
05.05.2021 18:00 10,7 C 13,0 C 8,0 C 65 % 1009,2 hPa 0,0 l/m 0,73 h 0,00 h 292 W/m 19,7 km/h (3 Bft) 95,81 %
05.05.2021 19:00 10,5 C 10,0 C 7,3 C 62 % 1009,2 hPa 0,0 l/m 0,23 h 0,00 h 86 W/m 18,1 km/h (3 Bft) 96,44 %
05.05.2021 20:00 9,3 C 8,4 C 5,8 C 65 % 1009,5 hPa 0,0 l/m 0,00 h 0,00 h 19 W/m 9,2 km/h (2 Bft) 99,43 %
05.05.2021 21:00 7,7 C 6,1 C 3,7 C 72 % 1009,9 hPa 0,0 l/m 0,00 h 0,00 h 5 W/m 1,5 km/h (1 Bft) 96,29 %
05.05.2021 22:00 6,1 C 4,3 C 2,2 C 78 % 1010,0 hPa 0,0 l/m 0,00 h 0,00 h 0 W/m 0,0 km/h (0 Bft) 99,22 %
05.05.2021 23:00 5,4 C 4,7 C 2,5 C 84 % 1010,1 hPa 0,2 l/m 0,00 h 0,30 h 0 W/m 3,8 km/h (1 Bft) 98,12 %
06.05.2021 00:00 5,9 C 5,2 C 2,7 C 85 % 1010,1 hPa 0,2 l/m 0,00 h 0,20 h 0 W/m 7,9 km/h (2 Bft) 97,50 %
06.05.2021 01:00 5,3 C 4,4 C 2,1 C 89 % 1009,5 hPa 0,0 l/m 0,00 h 0,00 h 0 W/m 7,5 km/h (2 Bft) 92,94 %
06.05.2021 02:00 4,9 C 4,2 C 2,2 C 90 % 1009,1 hPa 0,0 l/m 0,00 h 0,00 h 0 W/m 6,0 km/h (2 Bft) 98,36 %
06.05.2021 03:00 4,8 C 4,2 C 2,3 C 91 % 1008,5 hPa 0,0 l/m 0,00 h 0,13 h 0 W/m 9,3 km/h (2 Bft) 97,14 %
06.05.2021 04:00 4,8 C 4,0 C 2,3 C 93 % 1008,3 hPa 1,0 l/m 0,00 h 0,93 h 0 W/m 17,5 km/h (3 Bft) 98,43 %
06.05.2021 05:00 4,8 C 4,1 C 2,6 C 94 % 1007,9 hPa 0,0 l/m 0,00 h 0,20 h 4 W/m 11,1 km/h (2 Bft) 96,77 %
06.05.2021 06:00 4,8 C 4,2 C 2,6 C 94 % 1008,0 hPa 0,0 l/m 0,00 h 0,00 h 23 W/m 9,7 km/h (2 Bft) 98,38 %
06.05.2021 07:00 5,2 C 5,0 C 3,3 C 94 % 1008,1 hPa 0,0 l/m 0,00 h 0,00 h 90 W/m 7,2 km/h (2 Bft) 93,85 %
06.05.2021 08:00 5,9 C 6,2 C 4,3 C 94 % 1008,3 hPa 0,0 l/m 0,33 h 0,00 h 161 W/m 10,6 km/h (2 Bft) 97,32 %
06.05.2021 09:00 6,9 C 8,2 C 5,7 C 91 % 1008,2 hPa 0,0 l/m 0,37 h 0,00 h 252 W/m 9,0 km/h (2 Bft) 99,64 %
06.05.2021 10:00 8,5 C 10,8 C 9,6 C 83 % 1008,0 hPa 0,0 l/m 0,63 h 0,00 h 439 W/m 10,4 km/h (2 Bft) 95,94 %
06.05.2021 11:00 9,9 C 12,2 C 11,5 C 74 % 1007,7 hPa 0,0 l/m 0,77 h 0,00 h 640 W/m 12,7 km/h (3 Bft) 90,67 %
06.05.2021 12:00 11,5 C 13,8 C 16,0 C 66 % 1007,2 hPa 0,0 l/m 0,60 h 0,10 h 597 W/m 9,9 km/h (2 Bft) 96,30 %
06.05.2021 13:00 10,8 C 12,2 C 9,6 C 69 % 1006,6 hPa 0,0 l/m 0,27 h 0,23 h 341 W/m 4,6 km/h (1 Bft) 96,46 %
06.05.2021 14:00 12,0 C 14,0 C 10,7 C 60 % 1005,7 hPa 0,0 l/m 0,63 h 0,00 h 507 W/m 7,8 km/h (2 Bft) 97,12 %
06.05.2021 15:00 13,8 C 15,8 C 11,2 C 53 % 1004,9 hPa 0,0 l/m 0,80 h 0,00 h 527 W/m 8,9 km/h (2 Bft) 97,56 %
06.05.2021 16:00 12,9 C 12,9 C 10,4 C 52 % 1004,4 hPa 0,0 l/m 0,00 h 0,00 h 235 W/m 15,6 km/h (3 Bft) 98,06 %
06.05.2021 17:00 11,8 C 11,9 C 9,2 C 56 % 1004,4 hPa 0,0 l/m 0,00 h 0,00 h 158 W/m 7,1 km/h (2 Bft) 95,24 %
06.05.2021 18:00 10,9 C 10,5 C 8,2 C 63 % 1004,4 hPa 0,0 l/m 0,00 h 0,20 h 103 W/m 12,1 km/h (2 Bft) 97,62 %
06.05.2021 19:00 10,3 C 10,0 C 7,6 C 68 % 1004,5 hPa 0,0 l/m 0,47 h 0,00 h 108 W/m 13,0 km/h (3 Bft) 98,79 %
06.05.2021 20:00 9,6 C 8,8 C 6,7 C 72 % 1005,0 hPa 0,0 l/m 0,00 h 0,00 h 16 W/m 9,6 km/h (2 Bft) 97,48 %
06.05.2021 21:00 9,2 C 8,3 C 6,1 C 76 % 1005,7 hPa 0,0 l/m 0,00 h 0,00 h 0 W/m 4,8 km/h (1 Bft) 95,89 %
06.05.2021 22:00 8,1 C 6,9 C 4,2 C 84 % 1006,7 hPa 1,6 l/m 0,00 h 0,90 h 0 W/m 13,2 km/h (3 Bft) 97,01 %
06.05.2021 23:00 6,0 C 5,0 C 2,8 C 92 % 1007,3 hPa 1,2 l/m 0,00 h 0,97 h 0 W/m 15,7 km/h (3 Bft) 97,74 %
07.05.2021 00:00 5,5 C 4,7 C 2,7 C 94 % 1007,6 hPa 0,0 l/m 0,00 h 0,00 h 0 W/m 2,4 km/h (1 Bft) 94,59 %
07.05.2021 01:00 5,3 C 4,7 C 2,8 C 95 % 1008,1 hPa 0,0 l/m 0,00 h 0,07 h 0 W/m 4,5 km/h (1 Bft) 98,19 %
07.05.2021 02:00 4,9 C 4,1 C 2,6 C 95 % 1008,4 hPa 0,0 l/m 0,00 h 0,00 h 0 W/m 5,7 km/h (1 Bft) 98,25 %
07.05.2021 03:00 4,7 C 4,0 C 2,7 C 96 % 1008,6 hPa 0,0 l/m 0,00 h 0,00 h 0 W/m 4,8 km/h (1 Bft) 96,23 %
07.05.2021 04:00 4,2 C 3,4 C 2,2 C 96 % 1009,1 hPa 0,0 l/m 0,00 h 0,00 h 0 W/m 2,3 km/h (1 Bft) 96,41 %
07.05.2021 05:00 3,9 C 3,1 C 2,0 C 96 % 1009,6 hPa 0,0 l/m 0,00 h 0,00 h 1 W/m 1,7 km/h (1 Bft) 96,59 %
07.05.2021 06:00 3,7 C 3,2 C 2,1 C 97 % 1010,0 hPa 0,0 l/m 0,23 h 0,00 h 32 W/m 4,9 km/h (1 Bft) 99,71 %
07.05.2021 07:00 4,2 C 3,7 C 2,6 C 97 % 1010,8 hPa 1,6 l/m 0,00 h 0,73 h 25 W/m 4,9 km/h (1 Bft) 96,46 %
07.05.2021 08:00 3,9 C 3,3 C 2,3 C 97 % 1011,2 hPa 1,8 l/m 0,00 h 0,70 h 31 W/m 7,5 km/h (2 Bft) 96,13 %
07.05.2021 09:00 3,1 C 3,0 C 2,0 C 97 % 1012,4 hPa 0,2 l/m 0,03 h 0,13 h 89 W/m 9,8 km/h (2 Bft) 97,92 %
07.05.2021 10:00 5,2 C 8,6 C 6,2 C 97 % 1013,5 hPa 0,0 l/m 0,67 h 0,03 h 446 W/m 13,7 km/h (3 Bft) 93,47 %
07.05.2021 11:00 7,0 C 9,3 C 6,6 C 90 % 1014,8 hPa 0,0 l/m 0,60 h 0,00 h 494 W/m 15,7 km/h (3 Bft) 94,87 %
07.05.2021 12:00 9,7 C 12,3 C 14,6 C 74 % 1015,8 hPa 0,0 l/m 0,80 h 0,00 h 831 W/m 17,8 km/h (3 Bft) 98,90 %
07.05.2021 13:00 11,4 C 13,1 C 15,0 C 65 % 1016,3 hPa 0,0 l/m 0,60 h 0,00 h 722 W/m 16,2 km/h (3 Bft) 97,86 %
07.05.2021 14:00 12,4 C 13,8 C 10,3 C 62 % 1016,7 hPa 0,0 l/m 0,50 h 0,00 h 555 W/m 15,4 km/h (3 Bft) 98,08 %
07.05.2021 15:00 11,2 C 11,5 C 8,9 C 65 % 1017,1 hPa 0,0 l/m 0,23 h 0,00 h 237 W/m 12,4 km/h (3 Bft) 98,15 %
07.05.2021 16:00 12,0 C 13,3 C 9,7 C 62 % 1017,4 hPa 0,0 l/m 0,33 h 0,00 h 305 W/m 10,8 km/h (2 Bft) 98,36 %
07.05.2021 17:00 13,6 C 17,0 C 11,1 C 54 % 1017,3 hPa 0,0 l/m 0,87 h 0,00 h 511 W/m 14,4 km/h (3 Bft) 96,30 %
07.05.2021 18:00 13,2 C 15,3 C 10,4 C 56 % 1017,5 hPa 0,0 l/m 0,53 h 0,00 h 261 W/m 9,4 km/h (2 Bft) 97,20 %
07.05.2021 19:00 12,8 C 12,4 C 9,4 C 57 % 1017,5 hPa 0,0 l/m 0,23 h 0,00 h 105 W/m 8,3 km/h (2 Bft) 99,42 %
07.05.2021 20:00 11,5 C 10,5 C 7,9 C 62 % 1017,8 hPa 0,0 l/m 0,00 h 0,00 h 27 W/m 4,2 km/h (1 Bft) 96,30 %
07.05.2021 21:00 9,8 C 8,4 C 5,9 C 67 % 1018,4 hPa 0,0 l/m 0,00 h 0,00 h 6 W/m 2,6 km/h (1 Bft) 96,16 %
07.05.2021 22:00 8,2 C 5,9 C 3,8 C 75 % 1018,9 hPa 0,0 l/m 0,00 h 0,00 h 0 W/m 0,0 km/h (0 Bft) 98,18 %
07.05.2021 23:00 6,3 C 4,4 C 2,6 C 83 % 1019,1 hPa 0,0 l/m 0,00 h 0,00 h 0 W/m 0,0 km/h (0 Bft) 99,15 %
08.05.2021 00:00 4,9 C 3,2 C 1,5 C 87 % 1019,1 hPa 0,0 l/m 0,00 h 0,00 h 0 W/m 0,0 km/h (0 Bft) 98,97 %
08.05.2021 01:00 3,9 C 2,8 C 1,1 C 89 % 1019,1 hPa 0,0 l/m 0,00 h 0,00 h 0 W/m 0,0 km/h (0 Bft) 97,65 %
08.05.2021 02:00 3,5 C 3,0 C 1,3 C 91 % 1018,8 hPa 0,0 l/m 0,00 h 0,00 h 0 W/m 0,2 km/h (0 Bft) 96,58 %
08.05.2021 03:00 3,6 C 3,2 C 1,6 C 91 % 1018,3 hPa 0,0 l/m 0,00 h 0,00 h 0 W/m 3,2 km/h (1 Bft) 98,43 %
08.05.2021 04:00 3,2 C 2,2 C 0,7 C 90 % 1017,9 hPa 0,0 l/m 0,00 h 0,00 h 0 W/m 0,1 km/h (0 Bft) 96,95 %
08.05.2021 05:00 3,1 C 3,0 C 1,5 C 92 % 1017,4 hPa 0,0 l/m 0,00 h 0,00 h 0 W/m 2,7 km/h (1 Bft) 97,16 %
08.05.2021 06:00 3,4 C 3,1 C 1,7 C 92 % 1017,2 hPa 0,0 l/m 0,00 h 0,00 h 20 W/m 8,2 km/h (2 Bft) 82,64 %
08.05.2021 07:00 4,7 C 4,9 C 3,2 C 90 % 1017,1 hPa 0,0 l/m 0,13 h 0,00 h 99 W/m 14,3 km/h (3 Bft) 97,08 %
08.05.2021 08:00 6,7 C 7,2 C 5,2 C 83 % 1017,1 hPa 0,0 l/m 0,63 h 0,00 h 190 W/m 14,4 km/h (3 Bft) 96,91 %
08.05.2021 09:00 8,4 C 8,7 C 6,6 C 77 % 1016,8 hPa 0,0 l/m 0,07 h 0,00 h 226 W/m 16,2 km/h (3 Bft) 95,82 %
08.05.2021 10:00 10,6 C 11,4 C 9,0 C 73 % 1016,3 hPa 0,0 l/m 0,47 h 0,00 h 325 W/m 18,0 km/h (3 Bft) 98,53 %
08.05.2021 11:00 13,6 C 15,1 C 12,7 C 63 % 1015,4 hPa 0,0 l/m 0,97 h 0,00 h 558 W/m 21,7 km/h (4 Bft) 97,44 %
08.05.2021 12:00 15,6 C 16,1 C 13,9 C 53 % 1014,7 hPa 0,0 l/m 0,73 h 0,00 h 454 W/m 24,3 km/h (4 Bft) 99,32 %
08.05.2021 13:00 15,4 C 15,4 C 12,6 C 55 % 1014,1 hPa 0,0 l/m 0,50 h 0,17 h 344 W/m 25,7 km/h (4 Bft) 95,61 %
08.05.2021 14:00 13,5 C 12,9 C 8,6 C 69 % 1013,2 hPa 0,0 l/m 0,00 h 0,90 h 195 W/m 19,6 km/h (3 Bft) 97,54 %
08.05.2021 15:00 13,6 C 13,9 C 10,5 C 71 % 1011,9 hPa 0,0 l/m 0,23 h 0,17 h 278 W/m 21,0 km/h (4 Bft) 99,17 %
08.05.2021 16:00 15,4 C 15,5 C 12,2 C 64 % 1010,9 hPa 0,0 l/m 0,03 h 0,10 h 237 W/m 22,6 km/h (4 Bft) 96,08 %
08.05.2021 17:00 16,5 C 16,8 C 13,4 C 64 % 1010,3 hPa 0,0 l/m 0,57 h 0,00 h 277 W/m 23,7 km/h (4 Bft) 97,65 %
08.05.2021 18:00 17,4 C 17,1 C 13,8 C 64 % 1009,7 hPa 0,0 l/m 0,37 h 0,00 h 137 W/m 16,4 km/h (3 Bft) 99,63 %
08.05.2021 19:00 17,4 C 16,9 C 13,5 C 67 % 1009,3 hPa 0,0 l/m 0,17 h 0,00 h 74 W/m 12,7 km/h (3 Bft) 95,52 %
08.05.2021 20:00 17,5 C 16,3 C 13,2 C 70 % 1009,1 hPa 0,0 l/m 0,00 h 0,00 h 26 W/m 14,2 km/h (3 Bft) 97,51 %
08.05.2021 21:00 16,2 C 15,0 C 12,1 C 74 % 1009,2 hPa 0,0 l/m 0,00 h 0,00 h 6 W/m 10,8 km/h (2 Bft) 98,38 %
08.05.2021 22:00 15,4 C 14,4 C 11,6 C 78 % 1009,1 hPa 0,0 l/m 0,00 h 0,00 h 0 W/m 14,4 km/h (3 Bft) 96,66 %
08.05.2021 23:00 14,6 C 13,4 C 10,8 C 80 % 1009,0 hPa 0,0 l/m 0,00 h 0,00 h 0 W/m 9,9 km/h (2 Bft) 98,67 %
09.05.2021 00:00 13,8 C 12,7 C 10,2 C 83 % 1008,8 hPa 0,0 l/m 0,00 h 0,00 h 0 W/m 8,1 km/h (2 Bft) 95,84 %
09.05.2021 01:00 13,1 C 12,1 C 9,9 C 85 % 1008,5 hPa 0,0 l/m 0,00 h 0,00 h 0 W/m 9,4 km/h (2 Bft) 97,59 %
09.05.2021 02:00 12,4 C 11,4 C 9,3 C 86 % 1008,1 hPa 0,0 l/m 0,00 h 0,00 h 0 W/m 9,1 km/h (2 Bft) 99,58 %
09.05.2021 03:00 11,6 C 10,7 C 8,9 C 88 % 1007,5 hPa 0,0 l/m 0,00 h 0,00 h 0 W/m 10,6 km/h (2 Bft) 96,98 %
09.05.2021 04:00 11,1 C 10,6 C 8,9 C 89 % 1006,8 hPa 0,0 l/m 0,00 h 0,00 h 0 W/m 10,7 km/h (2 Bft) 96,59 %
09.05.2021 05:00 11,1 C 10,6 C 8,7 C 89 % 1006,5 hPa 0,0 l/m 0,00 h 0,00 h 0 W/m 12,8 km/h (3 Bft) 97,28 %
09.05.2021 06:00 11,1 C 10,8 C 9,0 C 89 % 1006,1 hPa 0,0 l/m 0,00 h 0,00 h 34 W/m 14,6 km/h (3 Bft) 95,92 %
09.05.2021 07:00 12,2 C 11,9 C 9,9 C 86 % 1006,0 hPa 0,0 l/m 0,00 h 0,00 h 41 W/m 16,2 km/h (3 Bft) 98,40 %
09.05.2021 08:00 14,6 C 15,7 C 11,9 C 80 % 1005,6 hPa 0,0 l/m 0,90 h 0,00 h 349 W/m 19,7 km/h (3 Bft) 94,17 %
09.05.2021 09:00 18,0 C 21,1 C 17,9 C 70 % 1005,0 hPa 0,0 l/m 1,00 h 0,00 h 540 W/m 25,5 km/h (4 Bft) 94,38 %
09.05.2021 10:00 20,3 C 21,6 C 20,1 C 66 % 1004,1 hPa 0,0 l/m 0,63 h 0,00 h 474 W/m 23,3 km/h (4 Bft) 97,23 %
09.05.2021 11:00 21,2 C 21,7 C 19,3 C 65 % 1003,3 hPa 0,0 l/m 0,40 h 0,00 h 392 W/m 22,3 km/h (4 Bft) 98,59 %
09.05.2021 12:00 23,8 C 25,0 C 24,7 C 60 % 1002,6 hPa 0,0 l/m 0,93 h 0,00 h 657 W/m 26,0 km/h (4 Bft) 96,39 %
09.05.2021 13:00 25,9 C 27,1 C 28,0 C 57 % 1002,2 hPa 0,0 l/m 1,00 h 0,00 h 809 W/m 28,5 km/h (4 Bft) 97,16 %
09.05.2021 14:00 28,5 C 30,1 C 25,1 C 48 % 1002,1 hPa 0,0 l/m 1,00 h 0,00 h 874 W/m 30,5 km/h (5 Bft) 95,75 %
09.05.2021 15:00 29,1 C 31,0 C 25,0 C 48 % 1001,7 hPa 0,0 l/m 0,93 h 0,00 h 755 W/m 25,4 km/h (4 Bft) 97,01 %
09.05.2021 16:00 29,3 C 32,1 C 25,1 C 48 % 1000,8 hPa 0,0 l/m 0,97 h 0,00 h 602 W/m 21,6 km/h (4 Bft) 96,62 %
09.05.2021 17:00 28,9 C 30,0 C 24,8 C 49 % 1000,4 hPa 0,0 l/m 0,97 h 0,00 h 395 W/m 21,0 km/h (4 Bft) 98,44 %
09.05.2021 18:00 27,8 C 27,4 C 23,6 C 50 % 1000,4 hPa 0,0 l/m 0,33 h 0,00 h 180 W/m 21,6 km/h (4 Bft) 97,43 %
09.05.2021 19:00 26,3 C 25,3 C 21,4 C 53 % 1000,4 hPa 0,0 l/m 0,00 h 0,00 h 92 W/m 12,2 km/h (2 Bft) 95,04 %
09.05.2021 20:00 25,1 C 23,5 C 19,9 C 56 % 1000,4 hPa 0,0 l/m 0,00 h 0,00 h 26 W/m 4,3 km/h (1 Bft) 99,00 %
09.05.2021 21:00 23,2 C 21,7 C 18,6 C 60 % 1000,7 hPa 0,0 l/m 0,00 h 0,00 h 0 W/m 9,5 km/h (2 Bft) 99,08 %
09.05.2021 22:00 21,7 C 20,4 C 17,5 C 60 % 1001,1 hPa 0,0 l/m 0,00 h 0,00 h 0 W/m 10,5 km/h (2 Bft) 94,51 %
09.05.2021 23:00 20,9 C 19,9 C 16,8 C 61 % 1001,3 hPa 0,0 l/m 0,00 h 0,00 h 0 W/m 9,8 km/h (2 Bft) 99,16 %
Min-Datum _ 03.05.21 03.05.21 03.05.21 09.05.21 04.05.21 - - - - 03.05.21 08.05.21
_ Min-Zeit 04:54 04:24 04:50 16:38 12:16 - - - - 00:00 06:02
Minimum _ 1,6 C 0,6 C -1,1 C 46 % 997,5 hPa - - - - 0,0 km/h (0 Bft) 35,90 %
Max-Datum _ 09.05.21 09.05.21 09.05.21 07.05.21 03.05.21 05.05.21 03.05.21 06.05.21 04.05.21 04.05.21 03.05.21
_ Max-Zeit 16:34 16:32 13:36 07:26 01:42 08:02 10:08 04:09 13:20 11:32 00:44
Maximum _ 29,6 C 33,3 C 32,3 C 98 % 1022,0 hPa 2,0 l/m 0,07 h 0,08 h 1134 W/m 74,0 km/h
SO (8 Bft)
100,00 %
Durchschnitt _ 10,6 C 10,6 C 8,3 C 75 % 1009,1 hPa #16,4 l/m #39:24 h #19:24 h 274 W/m 15,6 km/h (3 Bft) 97,09 %
© 2021 W. Hausmann